ETH727 EGCC-LFML
Flight info
| Callsign | ETH727 |
|---|---|
| Flight time | N/A |
| Altitude | 35000 |
| Route | LISTO P18 TELBA L151 MID/N0487F410 UL612 RESMI UM728 KETEX DCT KOTIS DCT KUKOR DCT UTUVA/N0468F290 DCT LERGA |
| Aircraft | A359/H-SDE2E3GHIJ3J4J5LM1ORWXY/LB1D1 |
Departure
| Time | 2026-05-05 18:25 |
|---|---|
| Airport | Manchester Airport (EGCC) |
Arrival
| Time | N/A |
|---|---|
| Airport | Marseille Provence Airport (LFML) |
| Time | Latitude | Longitude | Altitude | Speed | Heading |
|---|---|---|---|---|---|
| 2026-05-05 17:56 | 53.36758 | -2.28764 | 261 ft | 0 kts | 313° |
| 2026-05-05 18:10 | 53.36751 | -2.28751 | 263 ft | 3 kts | 315° |
| 2026-05-05 18:10 | 53.36736 | -2.28727 | 261 ft | 3 kts | 315° |
| 2026-05-05 18:10 | 53.36723 | -2.28704 | 264 ft | 3 kts | 304° |
| 2026-05-05 18:11 | 53.36714 | -2.28679 | 261 ft | 3 kts | 283° |
| 2026-05-05 18:11 | 53.36711 | -2.28654 | 261 ft | 3 kts | 253° |
| 2026-05-05 18:11 | 53.36716 | -2.28634 | 261 ft | 2 kts | 226° |
| 2026-05-05 18:11 | 53.36724 | -2.28620 | 267 ft | 3 kts | 225° |
| 2026-05-05 18:12 | 53.36734 | -2.28604 | 265 ft | 0 kts | 225° |
| 2026-05-05 18:16 | 53.36724 | -2.28621 | 267 ft | 8 kts | 225° |
| 2026-05-05 18:16 | 53.36650 | -2.28742 | 261 ft | 18 kts | 220° |
| 2026-05-05 18:16 | 53.36569 | -2.28707 | 261 ft | 13 kts | 128° |
| 2026-05-05 18:16 | 53.36504 | -2.28588 | 261 ft | 15 kts | 134° |
| 2026-05-05 18:17 | 53.36425 | -2.28455 | 261 ft | 17 kts | 135° |
| 2026-05-05 18:17 | 53.36336 | -2.28304 | 261 ft | 19 kts | 134° |
| 2026-05-05 18:17 | 53.36236 | -2.28137 | 261 ft | 21 kts | 135° |
| 2026-05-05 18:17 | 53.36137 | -2.27970 | 261 ft | 19 kts | 135° |
| 2026-05-05 18:18 | 53.36029 | -2.27841 | 261 ft | 20 kts | 169° |
| 2026-05-05 18:18 | 53.35887 | -2.27850 | 261 ft | 21 kts | 185° |
| 2026-05-05 18:18 | 53.35751 | -2.27874 | 260 ft | 17 kts | 186° |
| 2026-05-05 18:18 | 53.35625 | -2.27919 | 256 ft | 19 kts | 214° |
| 2026-05-05 18:19 | 53.35541 | -2.28065 | 252 ft | 14 kts | 222° |
| 2026-05-05 18:19 | 53.35466 | -2.28139 | 249 ft | 14 kts | 199° |
| 2026-05-05 18:19 | 53.35353 | -2.28177 | 245 ft | 18 kts | 195° |
| 2026-05-05 18:19 | 53.35236 | -2.28296 | 240 ft | 22 kts | 225° |
| 2026-05-05 18:20 | 53.35175 | -2.28414 | 237 ft | 14 kts | 230° |
| 2026-05-05 18:20 | 53.35104 | -2.28563 | 233 ft | 19 kts | 231° |
| 2026-05-05 18:20 | 53.35006 | -2.28751 | 227 ft | 20 kts | 227° |
| 2026-05-05 18:20 | 53.34937 | -2.28874 | 228 ft | 17 kts | 226° |
| 2026-05-05 18:21 | 53.34855 | -2.29019 | 223 ft | 19 kts | 227° |
| 2026-05-05 18:21 | 53.34758 | -2.29210 | 218 ft | 19 kts | 231° |
| 2026-05-05 18:21 | 53.34686 | -2.29319 | 214 ft | 0 kts | 204° |
| 2026-05-05 18:23 | 53.34684 | -2.29321 | 209 ft | 1 kts | 204° |
| 2026-05-05 18:23 | 53.34643 | -2.29339 | 216 ft | 11 kts | 187° |
| 2026-05-05 18:24 | 53.34562 | -2.29304 | 217 ft | 12 kts | 137° |
| 2026-05-05 18:24 | 53.34564 | -2.29183 | 220 ft | 10 kts | 60° |
| 2026-05-05 18:24 | 53.34576 | -2.29154 | 218 ft | 0 kts | 53° |
| 2026-05-05 18:25 | 53.34627 | -2.29048 | 216 ft | 41 kts | 51° |
| 2026-05-05 18:25 | 53.34812 | -2.28663 | 226 ft | 86 kts | 51° |
| 2026-05-05 18:25 | 53.35549 | -2.27128 | 365 ft | 155 kts | 52° |
| 2026-05-05 18:25 | 53.36235 | -2.25767 | 1137 ft | 152 kts | 48° |
| 2026-05-05 18:26 | 53.36948 | -2.24444 | 1902 ft | 161 kts | 47° |
| 2026-05-05 18:26 | 53.37364 | -2.22562 | 2307 ft | 191 kts | 89° |
| 2026-05-05 18:26 | 53.36812 | -2.20390 | 2711 ft | 223 kts | 126° |
| 2026-05-05 18:26 | 53.35687 | -2.18425 | 3293 ft | 243 kts | 137° |
| 2026-05-05 18:27 | 53.34187 | -2.16966 | 4032 ft | 257 kts | 160° |
| 2026-05-05 18:27 | 53.32377 | -2.16701 | 4691 ft | 267 kts | 184° |
| 2026-05-05 18:27 | 53.30524 | -2.17077 | 5062 ft | 269 kts | 187° |
| 2026-05-05 18:27 | 53.28663 | -2.17492 | 5421 ft | 271 kts | 186° |
| 2026-05-05 18:28 | 53.24880 | -2.18172 | 6670 ft | 276 kts | 185° |
| 2026-05-05 18:28 | 53.22950 | -2.18464 | 7629 ft | 279 kts | 185° |
| 2026-05-05 18:28 | 53.20993 | -2.18754 | 8561 ft | 284 kts | 186° |
| 2026-05-05 18:29 | 53.19010 | -2.19055 | 9545 ft | 287 kts | 187° |
| 2026-05-05 18:29 | 53.17009 | -2.19372 | 10436 ft | 294 kts | 187° |
| 2026-05-05 18:29 | 53.14921 | -2.19718 | 10897 ft | 315 kts | 187° |
| 2026-05-05 18:29 | 53.12666 | -2.20096 | 11339 ft | 336 kts | 187° |
| 2026-05-05 18:30 | 53.10297 | -2.20490 | 11990 ft | 347 kts | 187° |
| 2026-05-05 18:30 | 53.07868 | -2.20886 | 12806 ft | 354 kts | 187° |
| 2026-05-05 18:30 | 53.05402 | -2.21284 | 13641 ft | 359 kts | 187° |
| 2026-05-05 18:30 | 53.02903 | -2.21687 | 14410 ft | 364 kts | 187° |
| 2026-05-05 18:31 | 53.00368 | -2.22096 | 15194 ft | 367 kts | 187° |
| 2026-05-05 18:31 | 52.97807 | -2.22504 | 15970 ft | 371 kts | 187° |
| 2026-05-05 18:31 | 52.95222 | -2.22905 | 16766 ft | 374 kts | 187° |
| 2026-05-05 18:31 | 52.92612 | -2.23305 | 17547 ft | 378 kts | 187° |
| 2026-05-05 18:32 | 52.89978 | -2.23709 | 18359 ft | 382 kts | 187° |
| 2026-05-05 18:32 | 52.87323 | -2.24140 | 19086 ft | 385 kts | 189° |
| 2026-05-05 18:32 | 52.84678 | -2.24901 | 19851 ft | 386 kts | 193° |
| 2026-05-05 18:32 | 52.82038 | -2.25819 | 20605 ft | 389 kts | 194° |
| 2026-05-05 18:33 | 52.79383 | -2.26819 | 21340 ft | 392 kts | 195° |
| 2026-05-05 18:33 | 52.76749 | -2.27845 | 22064 ft | 395 kts | 195° |
| 2026-05-05 18:33 | 52.74050 | -2.28905 | 22796 ft | 399 kts | 195° |
| 2026-05-05 18:33 | 52.71319 | -2.29827 | 23513 ft | 403 kts | 190° |
| 2026-05-05 18:34 | 52.68496 | -2.30094 | 24102 ft | 409 kts | 180° |
| 2026-05-05 18:34 | 52.65647 | -2.29474 | 24657 ft | 417 kts | 168° |
| 2026-05-05 18:34 | 52.62897 | -2.27868 | 25219 ft | 424 kts | 156° |
| 2026-05-05 18:34 | 52.60316 | -2.25463 | 25791 ft | 428 kts | 150° |
| 2026-05-05 18:35 | 52.57834 | -2.22809 | 26373 ft | 432 kts | 148° |
| 2026-05-05 18:35 | 52.55351 | -2.20014 | 26931 ft | 436 kts | 147° |
| 2026-05-05 18:35 | 52.52940 | -2.17270 | 27507 ft | 438 kts | 147° |
| 2026-05-05 18:35 | 52.50456 | -2.14466 | 28073 ft | 441 kts | 147° |
| 2026-05-05 18:36 | 52.47900 | -2.11622 | 28657 ft | 444 kts | 148° |
| 2026-05-05 18:36 | 52.45319 | -2.08786 | 29190 ft | 447 kts | 148° |
| 2026-05-05 18:36 | 52.42725 | -2.05963 | 29717 ft | 450 kts | 148° |
| 2026-05-05 18:36 | 52.40203 | -2.03231 | 30203 ft | 453 kts | 148° |
| 2026-05-05 18:37 | 52.37572 | -2.00384 | 30624 ft | 456 kts | 148° |
| 2026-05-05 18:37 | 52.34917 | -1.97512 | 31020 ft | 459 kts | 148° |
| 2026-05-05 18:37 | 52.33110 | -1.95565 | 31290 ft | 461 kts | 148° |
| 2026-05-05 18:37 | 52.29541 | -1.91727 | 31810 ft | 465 kts | 148° |
| 2026-05-05 18:38 | 52.27799 | -1.89858 | 32060 ft | 467 kts | 148° |
| 2026-05-05 18:38 | 52.25083 | -1.86942 | 32429 ft | 470 kts | 148° |
| 2026-05-05 18:38 | 52.22503 | -1.84172 | 32776 ft | 472 kts | 148° |
| 2026-05-05 18:38 | 52.20460 | -1.81984 | 33050 ft | 474 kts | 148° |
| 2026-05-05 18:39 | 52.17634 | -1.78962 | 33382 ft | 477 kts | 148° |
| 2026-05-05 18:39 | 52.14845 | -1.75984 | 33678 ft | 480 kts | 148° |
| 2026-05-05 18:39 | 52.12044 | -1.72998 | 33980 ft | 483 kts | 148° |
| 2026-05-05 18:39 | 52.09217 | -1.69985 | 34293 ft | 484 kts | 148° |
| 2026-05-05 18:40 | 52.06440 | -1.67024 | 34674 ft | 483 kts | 148° |
| 2026-05-05 18:40 | 52.03624 | -1.64014 | 34928 ft | 485 kts | 148° |
| 2026-05-05 18:40 | 51.98059 | -1.58094 | 34964 ft | 472 kts | 148° |
| 2026-05-05 18:41 | 51.92657 | -1.52411 | 34964 ft | 470 kts | 148° |
| 2026-05-05 18:41 | 51.87184 | -1.46669 | 34965 ft | 469 kts | 149° |
| 2026-05-05 18:42 | 51.81825 | -1.41038 | 34961 ft | 468 kts | 149° |
| 2026-05-05 18:42 | 51.76351 | -1.35308 | 34957 ft | 467 kts | 149° |
| 2026-05-05 18:43 | 51.71039 | -1.29757 | 34957 ft | 465 kts | 149° |
| 2026-05-05 18:43 | 51.65600 | -1.24101 | 34929 ft | 464 kts | 149° |
| 2026-05-05 18:44 | 51.60216 | -1.18516 | 34927 ft | 463 kts | 149° |
| 2026-05-05 18:44 | 51.54807 | -1.12918 | 34930 ft | 462 kts | 149° |
| 2026-05-05 18:45 | 51.49484 | -1.07423 | 34925 ft | 462 kts | 149° |
| 2026-05-05 18:45 | 51.44245 | -1.02024 | 34940 ft | 462 kts | 149° |
| 2026-05-05 18:46 | 51.38963 | -0.96602 | 34937 ft | 462 kts | 149° |
| 2026-05-05 18:46 | 51.33532 | -0.91049 | 34937 ft | 462 kts | 149° |
| 2026-05-05 18:47 | 51.28115 | -0.85525 | 34940 ft | 462 kts | 149° |
| 2026-05-05 18:47 | 51.23363 | -0.80688 | 34938 ft | 462 kts | 149° |
| 2026-05-05 18:48 | 51.18289 | -0.75538 | 34937 ft | 463 kts | 148° |
| 2026-05-05 18:48 | 51.12852 | -0.70032 | 34936 ft | 463 kts | 148° |
| 2026-05-05 18:49 | 51.07418 | -0.64544 | 34934 ft | 463 kts | 148° |
| 2026-05-05 18:49 | 51.01991 | -0.59001 | 34932 ft | 463 kts | 147° |
| 2026-05-05 18:50 | 50.96690 | -0.53303 | 34937 ft | 463 kts | 146° |
| 2026-05-05 18:50 | 50.91369 | -0.47565 | 34936 ft | 462 kts | 147° |
| 2026-05-05 18:51 | 50.86036 | -0.41877 | 34937 ft | 462 kts | 147° |
| 2026-05-05 18:51 | 50.80685 | -0.36212 | 34938 ft | 462 kts | 147° |
| 2026-05-05 18:52 | 50.75343 | -0.30578 | 34938 ft | 462 kts | 147° |
| 2026-05-05 18:52 | 50.69997 | -0.24954 | 34935 ft | 461 kts | 147° |
| 2026-05-05 18:53 | 50.64657 | -0.19340 | 34933 ft | 460 kts | 147° |
| 2026-05-05 18:53 | 50.59351 | -0.13791 | 34928 ft | 460 kts | 147° |
| 2026-05-05 18:54 | 50.54021 | -0.08231 | 34925 ft | 459 kts | 147° |
| 2026-05-05 18:54 | 50.48696 | -0.02689 | 34924 ft | 458 kts | 147° |
| 2026-05-05 18:55 | 50.43379 | 0.02833 | 34920 ft | 457 kts | 147° |
| 2026-05-05 18:55 | 50.38078 | 0.08323 | 34919 ft | 456 kts | 147° |
| 2026-05-05 18:56 | 50.32804 | 0.13775 | 34918 ft | 455 kts | 147° |
| 2026-05-05 18:56 | 50.27515 | 0.19215 | 34912 ft | 454 kts | 147° |
| 2026-05-05 18:57 | 50.22238 | 0.24629 | 34911 ft | 453 kts | 147° |
| 2026-05-05 18:57 | 50.16975 | 0.30032 | 34909 ft | 452 kts | 147° |
| 2026-05-05 18:58 | 50.11717 | 0.35438 | 34910 ft | 452 kts | 146° |
| 2026-05-05 18:58 | 50.06470 | 0.40817 | 34905 ft | 451 kts | 146° |
| 2026-05-05 18:59 | 50.01230 | 0.46170 | 34904 ft | 450 kts | 146° |
| 2026-05-05 18:59 | 49.96028 | 0.51472 | 34897 ft | 450 kts | 146° |
| 2026-05-05 19:00 | 49.90790 | 0.56795 | 34892 ft | 450 kts | 146° |
| 2026-05-05 19:00 | 49.85578 | 0.62213 | 34889 ft | 451 kts | 142° |
| 2026-05-05 19:01 | 49.80653 | 0.68257 | 34885 ft | 451 kts | 141° |
| 2026-05-05 19:01 | 49.75785 | 0.74398 | 34882 ft | 452 kts | 140° |
| 2026-05-05 19:02 | 49.70936 | 0.80512 | 34881 ft | 452 kts | 140° |
| 2026-05-05 19:02 | 49.66049 | 0.86637 | 34876 ft | 453 kts | 140° |
| 2026-05-05 19:03 | 49.61153 | 0.92746 | 34867 ft | 453 kts | 140° |
| 2026-05-05 19:03 | 49.56242 | 0.98857 | 34862 ft | 453 kts | 141° |
| 2026-05-05 19:04 | 49.51331 | 1.04952 | 34854 ft | 453 kts | 141° |
| 2026-05-05 19:04 | 49.46421 | 1.11030 | 34857 ft | 453 kts | 141° |
| 2026-05-05 19:05 | 49.41512 | 1.17090 | 34860 ft | 452 kts | 141° |
| 2026-05-05 19:05 | 49.36644 | 1.23096 | 34857 ft | 452 kts | 141° |
| 2026-05-05 19:06 | 49.31731 | 1.29129 | 34857 ft | 452 kts | 141° |
| 2026-05-05 19:06 | 49.26823 | 1.35137 | 34855 ft | 451 kts | 141° |
| 2026-05-05 19:07 | 49.21911 | 1.41139 | 34852 ft | 451 kts | 141° |
| 2026-05-05 19:07 | 49.17000 | 1.47124 | 34851 ft | 451 kts | 141° |
| 2026-05-05 19:08 | 49.12095 | 1.53088 | 34850 ft | 451 kts | 141° |
| 2026-05-05 19:08 | 49.07190 | 1.59035 | 34832 ft | 451 kts | 141° |
| 2026-05-05 19:09 | 49.02309 | 1.64939 | 34838 ft | 451 kts | 141° |
| 2026-05-05 19:09 | 48.97497 | 1.70744 | 34839 ft | 451 kts | 141° |
| 2026-05-05 19:10 | 48.92565 | 1.76677 | 34838 ft | 451 kts | 141° |
| 2026-05-05 19:10 | 48.87724 | 1.82487 | 34837 ft | 452 kts | 141° |
| 2026-05-05 19:11 | 48.82786 | 1.88398 | 34837 ft | 452 kts | 141° |
| 2026-05-05 19:11 | 48.77850 | 1.94291 | 34839 ft | 452 kts | 141° |
| 2026-05-05 19:12 | 48.72930 | 2.00151 | 34838 ft | 452 kts | 141° |
| 2026-05-05 19:12 | 48.67943 | 2.06075 | 34838 ft | 453 kts | 141° |
| 2026-05-05 19:13 | 48.63058 | 2.11863 | 34837 ft | 453 kts | 141° |
| 2026-05-05 19:13 | 48.58054 | 2.17420 | 34822 ft | 455 kts | 149° |
| 2026-05-05 19:14 | 48.52208 | 2.21038 | 34821 ft | 456 kts | 163° |
| 2026-05-05 19:14 | 48.46045 | 2.23446 | 34827 ft | 458 kts | 165° |
| 2026-05-05 19:15 | 48.39859 | 2.25698 | 34822 ft | 459 kts | 166° |
| 2026-05-05 19:15 | 48.33741 | 2.27959 | 34821 ft | 460 kts | 165° |
| 2026-05-05 19:16 | 48.27528 | 2.30293 | 34826 ft | 460 kts | 165° |
| 2026-05-05 19:16 | 48.21417 | 2.32699 | 34825 ft | 461 kts | 165° |
| 2026-05-05 19:17 | 48.15216 | 2.35201 | 34834 ft | 461 kts | 165° |
| 2026-05-05 19:17 | 48.09090 | 2.37810 | 34843 ft | 462 kts | 162° |
| 2026-05-05 19:18 | 48.03089 | 2.40895 | 34841 ft | 462 kts | 161° |
| 2026-05-05 19:18 | 47.97126 | 2.43995 | 34847 ft | 462 kts | 161° |
| 2026-05-05 19:19 | 47.91993 | 2.46582 | 34847 ft | 462 kts | 162° |
| 2026-05-05 19:19 | 47.86054 | 2.49521 | 34841 ft | 461 kts | 162° |
| 2026-05-05 19:20 | 47.80144 | 2.52428 | 34846 ft | 461 kts | 162° |
| 2026-05-05 19:20 | 47.74375 | 2.55263 | 34834 ft | 460 kts | 162° |
| 2026-05-05 19:21 | 47.68331 | 2.58228 | 34838 ft | 460 kts | 162° |
| 2026-05-05 19:21 | 47.62381 | 2.61141 | 34832 ft | 459 kts | 162° |
| 2026-05-05 19:22 | 47.56310 | 2.64106 | 34835 ft | 459 kts | 162° |
| 2026-05-05 19:22 | 47.50252 | 2.67057 | 34840 ft | 459 kts | 162° |
| 2026-05-05 19:23 | 47.44183 | 2.70007 | 34845 ft | 459 kts | 162° |
| 2026-05-05 19:23 | 47.38124 | 2.72944 | 34844 ft | 458 kts | 162° |
| 2026-05-05 19:24 | 47.33086 | 2.75382 | 34857 ft | 459 kts | 162° |
| 2026-05-05 19:24 | 47.27015 | 2.78313 | 34847 ft | 459 kts | 163° |
| 2026-05-05 19:25 | 47.20950 | 2.81233 | 34861 ft | 459 kts | 163° |
| 2026-05-05 19:25 | 47.14875 | 2.84152 | 34863 ft | 459 kts | 163° |
| 2026-05-05 19:26 | 47.08795 | 2.87063 | 34864 ft | 459 kts | 163° |
| 2026-05-05 19:26 | 47.02952 | 2.89855 | 34863 ft | 459 kts | 163° |
| 2026-05-05 19:27 | 46.96877 | 2.92751 | 34861 ft | 459 kts | 163° |
| 2026-05-05 19:27 | 46.90800 | 2.95642 | 34849 ft | 459 kts | 163° |
| 2026-05-05 19:28 | 46.84870 | 2.98455 | 34856 ft | 458 kts | 163° |
| 2026-05-05 19:28 | 46.78930 | 3.01268 | 34859 ft | 458 kts | 163° |
| 2026-05-05 19:29 | 46.72867 | 3.04131 | 34860 ft | 458 kts | 163° |
| 2026-05-05 19:29 | 46.66883 | 3.06951 | 34862 ft | 458 kts | 163° |
| 2026-05-05 19:30 | 46.60870 | 3.09778 | 34867 ft | 457 kts | 163° |
| 2026-05-05 19:30 | 46.54828 | 3.12611 | 34871 ft | 457 kts | 163° |
| 2026-05-05 19:31 | 46.48873 | 3.15592 | 34868 ft | 457 kts | 161° |
| 2026-05-05 19:31 | 46.42978 | 3.18858 | 34876 ft | 457 kts | 161° |
| 2026-05-05 19:32 | 46.37057 | 3.22122 | 34879 ft | 457 kts | 161° |
| 2026-05-05 19:32 | 46.31092 | 3.25344 | 34881 ft | 457 kts | 161° |
| 2026-05-05 19:33 | 46.25116 | 3.28539 | 34883 ft | 457 kts | 161° |
| 2026-05-05 19:33 | 46.19141 | 3.31724 | 34884 ft | 457 kts | 161° |
| 2026-05-05 19:34 | 46.13172 | 3.34901 | 34880 ft | 457 kts | 162° |
| 2026-05-05 19:35 | 46.04374 | 3.39572 | 34884 ft | 457 kts | 162° |
| 2026-05-05 19:35 | 45.99067 | 3.42382 | 34884 ft | 457 kts | 162° |
| 2026-05-05 19:36 | 45.95973 | 3.44019 | 34922 ft | 455 kts | 162° |
| 2026-05-05 19:37 | 45.89972 | 3.47183 | 34689 ft | 468 kts | 162° |
| 2026-05-05 19:37 | 45.83950 | 3.50297 | 34452 ft | 478 kts | 165° |
| 2026-05-05 19:37 | 45.80946 | 3.51574 | 34232 ft | 476 kts | 166° |
| 2026-05-05 19:38 | 45.77763 | 3.52880 | 34009 ft | 475 kts | 166° |
| 2026-05-05 19:38 | 45.74620 | 3.54198 | 33777 ft | 474 kts | 166° |
| 2026-05-05 19:38 | 45.71483 | 3.55529 | 33492 ft | 474 kts | 166° |
| 2026-05-05 19:38 | 45.68384 | 3.56851 | 33223 ft | 473 kts | 166° |
| 2026-05-05 19:39 | 45.65171 | 3.58224 | 32952 ft | 473 kts | 166° |
| 2026-05-05 19:39 | 45.62012 | 3.59574 | 32681 ft | 473 kts | 166° |
| 2026-05-05 19:39 | 45.58864 | 3.60920 | 32417 ft | 472 kts | 166° |
| 2026-05-05 19:39 | 45.55746 | 3.62253 | 32160 ft | 472 kts | 166° |
| 2026-05-05 19:40 | 45.52743 | 3.63536 | 31918 ft | 471 kts | 166° |
| 2026-05-05 19:40 | 45.49544 | 3.64902 | 31651 ft | 469 kts | 166° |
| 2026-05-05 19:40 | 45.46736 | 3.66099 | 31417 ft | 466 kts | 166° |
| 2026-05-05 19:40 | 45.43608 | 3.67432 | 31157 ft | 462 kts | 166° |
| 2026-05-05 19:41 | 45.40499 | 3.68754 | 30906 ft | 459 kts | 166° |
| 2026-05-05 19:41 | 45.37542 | 3.70010 | 30664 ft | 455 kts | 167° |
| 2026-05-05 19:41 | 45.34556 | 3.71280 | 30417 ft | 451 kts | 167° |
| 2026-05-05 19:41 | 45.31671 | 3.72504 | 30012 ft | 445 kts | 167° |
| 2026-05-05 19:42 | 45.28858 | 3.73915 | 29406 ft | 443 kts | 160° |
| 2026-05-05 19:42 | 45.26253 | 3.76071 | 28829 ft | 445 kts | 148° |
| 2026-05-05 19:42 | 45.23995 | 3.79088 | 28442 ft | 449 kts | 135° |
| 2026-05-05 19:42 | 45.22168 | 3.82679 | 28051 ft | 455 kts | 128° |
| 2026-05-05 19:43 | 45.20454 | 3.86504 | 27639 ft | 455 kts | 128° |
| 2026-05-05 19:43 | 45.18765 | 3.90270 | 27236 ft | 453 kts | 128° |
| 2026-05-05 19:43 | 45.17066 | 3.94014 | 26904 ft | 448 kts | 128° |
| 2026-05-05 19:43 | 45.15195 | 3.97521 | 26879 ft | 443 kts | 136° |
| 2026-05-05 19:44 | 45.12994 | 4.00511 | 26794 ft | 435 kts | 146° |
| 2026-05-05 19:44 | 45.10494 | 4.02843 | 26453 ft | 427 kts | 156° |
| 2026-05-05 19:44 | 45.07850 | 4.04675 | 26174 ft | 424 kts | 159° |
| 2026-05-05 19:44 | 45.05183 | 4.06437 | 25918 ft | 424 kts | 159° |
| 2026-05-05 19:45 | 45.02534 | 4.08194 | 25658 ft | 423 kts | 159° |
| 2026-05-05 19:45 | 44.99996 | 4.09882 | 25424 ft | 422 kts | 158° |
| 2026-05-05 19:45 | 44.97403 | 4.11608 | 25193 ft | 421 kts | 158° |
| 2026-05-05 19:45 | 44.94866 | 4.13297 | 24942 ft | 420 kts | 158° |
| 2026-05-05 19:46 | 44.92260 | 4.15031 | 24699 ft | 419 kts | 158° |
| 2026-05-05 19:46 | 44.89626 | 4.16782 | 24458 ft | 417 kts | 158° |
| 2026-05-05 19:46 | 44.87002 | 4.18526 | 24213 ft | 416 kts | 158° |
| 2026-05-05 19:46 | 44.84385 | 4.20262 | 23968 ft | 415 kts | 158° |
| 2026-05-05 19:47 | 44.81766 | 4.21998 | 23739 ft | 414 kts | 158° |
| 2026-05-05 19:47 | 44.79191 | 4.23705 | 23513 ft | 413 kts | 158° |
| 2026-05-05 19:47 | 44.76586 | 4.25429 | 23218 ft | 412 kts | 157° |
| 2026-05-05 19:47 | 44.74246 | 4.26979 | 22965 ft | 410 kts | 158° |
| 2026-05-05 19:48 | 44.71749 | 4.28628 | 22698 ft | 409 kts | 158° |
| 2026-05-05 19:48 | 44.69179 | 4.30325 | 22423 ft | 407 kts | 158° |
| 2026-05-05 19:48 | 44.66667 | 4.31981 | 22154 ft | 405 kts | 158° |
| 2026-05-05 19:48 | 44.64119 | 4.33661 | 21882 ft | 404 kts | 158° |
| 2026-05-05 19:49 | 44.61615 | 4.35308 | 21616 ft | 402 kts | 158° |
| 2026-05-05 19:49 | 44.59904 | 4.36433 | 21426 ft | 402 kts | 158° |
| 2026-05-05 19:49 | 44.56557 | 4.38631 | 21078 ft | 400 kts | 158° |
| 2026-05-05 19:49 | 44.54041 | 4.40281 | 20843 ft | 399 kts | 158° |
| 2026-05-05 19:50 | 44.51530 | 4.41927 | 20578 ft | 398 kts | 158° |
| 2026-05-05 19:50 | 44.49026 | 4.43567 | 20315 ft | 397 kts | 158° |
| 2026-05-05 19:50 | 44.46529 | 4.45202 | 20066 ft | 396 kts | 158° |
| 2026-05-05 19:50 | 44.44038 | 4.46830 | 19815 ft | 394 kts | 158° |
| 2026-05-05 19:51 | 44.41549 | 4.48454 | 19561 ft | 393 kts | 158° |
| 2026-05-05 19:51 | 44.39075 | 4.50068 | 19307 ft | 392 kts | 158° |
| 2026-05-05 19:51 | 44.36664 | 4.51640 | 19079 ft | 392 kts | 158° |
| 2026-05-05 19:51 | 44.34195 | 4.53249 | 18844 ft | 391 kts | 158° |
| 2026-05-05 19:52 | 44.31731 | 4.54850 | 18599 ft | 390 kts | 158° |
| 2026-05-05 19:52 | 44.29276 | 4.56445 | 18366 ft | 389 kts | 158° |
| 2026-05-05 19:52 | 44.26826 | 4.58036 | 18116 ft | 388 kts | 158° |
| 2026-05-05 19:52 | 44.24381 | 4.59623 | 17839 ft | 387 kts | 158° |
| 2026-05-05 19:53 | 44.21940 | 4.61205 | 17573 ft | 386 kts | 157° |
| 2026-05-05 19:53 | 44.19507 | 4.62781 | 17306 ft | 385 kts | 157° |
| 2026-05-05 19:53 | 44.17083 | 4.64350 | 17039 ft | 384 kts | 157° |
| 2026-05-05 19:53 | 44.14660 | 4.65916 | 16775 ft | 382 kts | 158° |
| 2026-05-05 19:54 | 44.12253 | 4.67471 | 16514 ft | 381 kts | 158° |
| 2026-05-05 19:54 | 44.09839 | 4.68983 | 16257 ft | 379 kts | 160° |
| 2026-05-05 19:54 | 44.07458 | 4.70315 | 15988 ft | 367 kts | 161° |
| 2026-05-05 19:54 | 44.05149 | 4.71587 | 15730 ft | 355 kts | 161° |
| 2026-05-05 19:55 | 44.03686 | 4.72400 | 15567 ft | 348 kts | 161° |
| 2026-05-05 19:55 | 44.00744 | 4.74047 | 15216 ft | 334 kts | 161° |
| 2026-05-05 19:55 | 43.98624 | 4.75238 | 14979 ft | 324 kts | 161° |
| 2026-05-05 19:55 | 43.96582 | 4.76389 | 14905 ft | 309 kts | 161° |
| 2026-05-05 19:56 | 43.94635 | 4.77487 | 14906 ft | 297 kts | 161° |
| 2026-05-05 19:56 | 43.92722 | 4.78562 | 14914 ft | 296 kts | 161° |
| 2026-05-05 19:56 | 43.90832 | 4.79625 | 14759 ft | 290 kts | 161° |
| 2026-05-05 19:56 | 43.88965 | 4.80675 | 14123 ft | 288 kts | 161° |
| 2026-05-05 19:57 | 43.87110 | 4.81715 | 13147 ft | 290 kts | 161° |
| 2026-05-05 19:57 | 43.85872 | 4.82410 | 12512 ft | 289 kts | 161° |
| 2026-05-05 19:57 | 43.83386 | 4.83806 | 11339 ft | 286 kts | 161° |
| 2026-05-05 19:57 | 43.81589 | 4.84815 | 10540 ft | 283 kts | 161° |
| 2026-05-05 19:58 | 43.79776 | 4.85832 | 9716 ft | 279 kts | 161° |
| 2026-05-05 19:58 | 43.77958 | 4.86683 | 8898 ft | 271 kts | 172° |
| 2026-05-05 19:58 | 43.76128 | 4.86512 | 8472 ft | 265 kts | 198° |
| 2026-05-05 19:58 | 43.74547 | 4.85182 | 8204 ft | 270 kts | 223° |
| 2026-05-05 19:59 | 43.73367 | 4.83218 | 7955 ft | 269 kts | 232° |
| 2026-05-05 19:59 | 43.72277 | 4.81124 | 7706 ft | 268 kts | 232° |
| 2026-05-05 19:59 | 43.71214 | 4.79050 | 7443 ft | 261 kts | 232° |
| 2026-05-05 19:59 | 43.70153 | 4.77029 | 7100 ft | 258 kts | 229° |
| 2026-05-05 20:00 | 43.68767 | 4.75534 | 6753 ft | 252 kts | 202° |
| 2026-05-05 20:00 | 43.67061 | 4.75126 | 6416 ft | 250 kts | 175° |
| 2026-05-05 20:00 | 43.65431 | 4.75890 | 6063 ft | 250 kts | 148° |
| 2026-05-05 20:00 | 43.64153 | 4.77488 | 5686 ft | 245 kts | 134° |
| 2026-05-05 20:01 | 43.63022 | 4.79263 | 5307 ft | 247 kts | 133° |
| 2026-05-05 20:01 | 43.62061 | 4.81217 | 4918 ft | 243 kts | 117° |
| 2026-05-05 20:01 | 43.61617 | 4.83473 | 4551 ft | 245 kts | 97° |
| 2026-05-05 20:01 | 43.61551 | 4.85829 | 4159 ft | 246 kts | 91° |
| 2026-05-05 20:02 | 43.61556 | 4.88199 | 4016 ft | 247 kts | 91° |
| 2026-05-05 20:02 | 43.61566 | 4.90560 | 4001 ft | 245 kts | 91° |
| 2026-05-05 20:02 | 43.61578 | 4.92871 | 3992 ft | 237 kts | 91° |
| 2026-05-05 20:02 | 43.61546 | 4.95137 | 3990 ft | 234 kts | 98° |
| 2026-05-05 20:03 | 43.60905 | 4.97144 | 4002 ft | 230 kts | 131° |
| 2026-05-05 20:03 | 43.59806 | 4.98675 | 4002 ft | 229 kts | 138° |
| 2026-05-05 20:03 | 43.58663 | 5.00167 | 3957 ft | 221 kts | 137° |
| 2026-05-05 20:03 | 43.57581 | 5.01656 | 3732 ft | 218 kts | 135° |